createdAt,value
2022-12-11T00:01:58.546Z,-1.41
2022-12-11T00:04:26.274Z,-1.43
2022-12-11T00:06:55.243Z,-1.42
2022-12-11T00:09:22.933Z,-1.33
2022-12-11T00:11:50.557Z,-1.28
2022-12-11T00:14:18.230Z,-1.23
2022-12-11T00:16:45.873Z,-1.23
2022-12-11T00:19:13.495Z,-1.21
2022-12-11T00:21:41.141Z,-1.20
2022-12-11T00:24:10.411Z,-1.22
2022-12-11T00:26:38.205Z,-1.14
2022-12-11T00:29:08.236Z,-1.13
2022-12-11T00:31:35.835Z,-1.10
2022-12-11T00:34:03.414Z,-1.09
2022-12-11T00:36:31.077Z,-1.07
2022-12-11T00:38:59.795Z,-1.06
2022-12-11T00:41:28.725Z,-1.10
2022-12-11T00:43:56.389Z,-1.07
2022-12-11T00:46:24.123Z,-1.07
2022-12-11T00:48:51.806Z,-1.05
2022-12-11T00:51:19.567Z,-1.08
2022-12-11T00:53:47.202Z,-1.04
2022-12-11T00:56:18.353Z,-1.06
2022-12-11T00:58:47.656Z,-1.07
2022-12-11T01:01:18.539Z,-1.04
2022-12-11T01:03:46.636Z,-1.07
2022-12-11T01:06:16.554Z,-1.15
2022-12-11T01:08:45.071Z,-1.17
2022-12-11T01:11:13.804Z,-1.21
2022-12-11T01:13:42.257Z,-1.23
2022-12-11T01:16:13.089Z,-1.23
2022-12-11T01:18:40.849Z,-1.25
2022-12-11T01:21:10.048Z,-1.22
2022-12-11T01:23:38.336Z,-1.22
2022-12-11T01:26:08.271Z,-1.18
2022-12-11T01:28:36.097Z,-1.19
2022-12-11T01:31:03.939Z,-1.21
2022-12-11T01:33:32.853Z,-1.19
2022-12-11T01:36:00.459Z,-1.20
2022-12-11T01:38:27.986Z,-1.22
2022-12-11T01:40:55.549Z,-1.23
2022-12-11T01:43:23.129Z,-1.24
2022-12-11T01:45:50.763Z,-1.21
2022-12-11T01:48:22.166Z,-1.22
2022-12-11T01:50:54.027Z,-1.22
2022-12-11T01:53:25.334Z,-1.22
2022-12-11T01:55:56.209Z,-1.22
2022-12-11T01:58:28.248Z,-1.21
2022-12-11T02:00:57.153Z,-1.23
2022-12-11T02:03:24.836Z,-1.24
2022-12-11T02:05:53.722Z,-1.24
2022-12-11T02:08:22.213Z,-1.26
2022-12-11T02:11:01.558Z,-1.26
2022-12-11T02:13:35.805Z,-1.19
2022-12-11T02:16:09.911Z,-1.17
2022-12-11T02:18:43.099Z,-1.17
2022-12-11T02:21:14.905Z,-1.16
2022-12-11T02:23:59.858Z,-1.14
2022-12-11T02:26:49.816Z,-1.14
2022-12-11T02:29:23.786Z,-1.11
2022-12-11T02:31:57.443Z,-1.12
2022-12-11T02:34:33.244Z,-1.11
2022-12-11T02:37:07.856Z,-1.15
2022-12-11T02:39:40.044Z,-1.22
2022-12-11T02:42:10.931Z,-1.23
2022-12-11T02:44:42.395Z,-1.23
2022-12-11T02:47:14.632Z,-1.17
2022-12-11T02:49:45.381Z,-1.17
2022-12-11T02:52:15.408Z,-1.13
2022-12-11T02:54:45.621Z,-1.12
2022-12-11T02:57:17.683Z,-1.13
2022-12-11T02:59:47.431Z,-1.16
2022-12-11T03:02:18.732Z,-1.10
2022-12-11T03:04:47.914Z,-1.09
2022-12-11T03:07:19.154Z,-1.09
2022-12-11T03:09:48.636Z,-1.16
2022-12-11T03:12:20.153Z,-1.30
2022-12-11T03:14:49.938Z,-1.22
2022-12-11T03:17:20.619Z,-1.19
2022-12-11T03:19:54.133Z,-1.25
2022-12-11T03:22:26.297Z,-1.24
2022-12-11T03:25:01.370Z,-1.26
2022-12-11T03:27:34.210Z,-1.30
2022-12-11T03:30:07.449Z,-1.36
2022-12-11T03:32:39.103Z,-1.32
2022-12-11T03:35:13.143Z,-1.40
2022-12-11T03:37:42.777Z,-1.39
2022-12-11T03:40:17.767Z,-1.39
2022-12-11T03:42:48.219Z,-1.39
2022-12-11T03:45:18.811Z,-1.36
2022-12-11T03:47:47.921Z,-1.38
2022-12-11T03:50:18.167Z,-1.41
2022-12-11T03:52:51.362Z,-1.37
2022-12-11T03:55:20.262Z,-1.40
2022-12-11T03:57:48.392Z,-1.40
2022-12-11T04:00:20.806Z,-1.33
2022-12-11T04:03:13.219Z,-1.29
2022-12-11T04:05:42.395Z,-1.17
2022-12-11T04:08:10.198Z,-1.12
2022-12-11T04:10:37.926Z,-1.06
2022-12-11T04:13:05.560Z,-1.04
2022-12-11T04:15:33.578Z,-1.01
2022-12-11T04:18:18.702Z,-0.99
2022-12-11T04:21:04.101Z,-0.98
2022-12-11T04:23:49.430Z,-0.95
2022-12-11T04:26:18.958Z,-0.88
2022-12-11T04:28:48.398Z,-0.86
2022-12-11T04:31:19.330Z,-0.88
2022-12-11T04:33:47.148Z,-0.87
2022-12-11T04:36:15.390Z,-0.90
2022-12-11T04:38:42.983Z,-0.91
2022-12-11T04:41:12.472Z,-0.91
2022-12-11T04:43:40.619Z,-0.91
2022-12-11T04:46:10.431Z,-0.94
2022-12-11T04:48:40.668Z,-0.91
2022-12-11T04:51:09.709Z,-0.88
2022-12-11T04:53:37.672Z,-0.86
2022-12-11T04:56:06.965Z,-0.82
2022-12-11T04:58:35.805Z,-0.79
2022-12-11T05:01:08.262Z,-0.92
2022-12-11T05:03:35.995Z,-1.09
2022-12-11T05:06:05.725Z,-1.28
2022-12-11T05:08:36.791Z,-1.35
2022-12-11T05:11:06.695Z,-1.33
2022-12-11T05:13:34.857Z,-1.29
2022-12-11T05:16:04.828Z,-1.24
2022-12-11T05:18:32.482Z,-1.22
2022-12-11T05:21:02.404Z,-1.13
2022-12-11T05:23:31.691Z,-1.22
2022-12-11T05:26:01.697Z,-1.17
2022-12-11T05:28:32.041Z,-1.11
2022-12-11T05:31:01.662Z,-1.05
2022-12-11T05:33:30.390Z,-1.01
2022-12-11T05:35:57.969Z,-0.98
2022-12-11T05:38:25.685Z,-0.92
2022-12-11T05:40:59.273Z,-0.90
2022-12-11T05:43:28.579Z,-0.90
2022-12-11T05:45:57.234Z,-0.90
2022-12-11T05:48:24.862Z,-0.90
2022-12-11T05:50:59.139Z,-0.90
2022-12-11T05:53:27.289Z,-0.80
2022-12-11T05:55:55.064Z,-0.83
2022-12-11T05:58:24.100Z,-0.79
2022-12-11T06:00:51.694Z,-0.78
2022-12-11T06:03:19.372Z,-0.75
2022-12-11T06:05:47.017Z,-0.72
2022-12-11T06:08:14.657Z,-0.76
2022-12-11T06:10:46.266Z,-0.79
2022-12-11T06:13:14.234Z,-0.76
2022-12-11T06:15:43.876Z,-0.76
2022-12-11T06:18:11.599Z,-0.71
2022-12-11T06:20:39.435Z,-0.68
2022-12-11T06:23:07.063Z,-0.72
2022-12-11T06:25:35.242Z,-0.75
2022-12-11T06:28:02.916Z,-0.75
2022-12-11T06:30:38.316Z,-0.81
2022-12-11T06:33:08.400Z,-0.85
2022-12-11T06:35:41.663Z,-0.86
2022-12-11T06:38:10.495Z,-0.82
2022-12-11T06:40:38.202Z,-0.86
2022-12-11T06:43:06.184Z,-0.89
2022-12-11T06:45:33.866Z,-0.87
2022-12-11T06:48:01.483Z,-0.87
2022-12-11T06:50:30.392Z,-0.86
2022-12-11T06:52:58.102Z,-0.87
2022-12-11T06:55:25.707Z,-0.91
2022-12-11T06:57:53.223Z,-0.93
2022-12-11T07:00:21.129Z,-0.92
2022-12-11T07:02:48.726Z,-0.93
2022-12-11T07:05:16.369Z,-0.94
2022-12-11T07:07:45.349Z,-0.96
2022-12-11T07:10:13.021Z,-1.03
2022-12-11T07:12:40.730Z,-1.02
2022-12-11T07:15:09.536Z,-1.03
2022-12-11T07:17:37.362Z,-0.12
2022-12-11T07:20:05.802Z,-0.38
2022-12-11T07:22:33.355Z,-0.53
2022-12-11T07:25:02.474Z,-0.58
2022-12-11T07:27:30.216Z,-0.64
2022-12-11T07:29:57.772Z,-0.67
2022-12-11T07:32:25.469Z,-0.69
2022-12-11T07:34:53.099Z,-0.74
2022-12-11T07:37:20.669Z,-0.75
2022-12-11T07:39:48.885Z,-0.76
2022-12-11T07:42:17.919Z,-0.75
2022-12-11T07:44:45.473Z,-0.74
2022-12-11T07:47:13.037Z,-0.80
2022-12-11T07:49:40.628Z,-0.79
2022-12-11T07:52:08.185Z,-0.80
2022-12-11T07:54:35.708Z,-0.79
2022-12-11T07:57:03.297Z,-0.76
2022-12-11T07:59:32.286Z,-0.68
2022-12-11T08:02:02.113Z,-0.75
2022-12-11T08:04:29.728Z,-0.73
2022-12-11T08:06:58.671Z,-0.70
2022-12-11T08:09:26.202Z,-0.61
2022-12-11T08:11:53.789Z,-0.54
2022-12-11T08:14:21.613Z,-0.50
2022-12-11T08:16:50.630Z,-0.41
2022-12-11T08:19:18.549Z,0.05
2022-12-11T08:21:46.714Z,0.27
2022-12-11T08:24:20.505Z,0.32
2022-12-11T08:26:48.592Z,0.32
2022-12-11T08:29:16.297Z,1.00
2022-12-11T08:31:43.890Z,2.32
2022-12-11T08:34:15.507Z,1.79
2022-12-11T08:36:44.204Z,1.62
2022-12-11T08:39:11.761Z,1.44
2022-12-11T08:41:39.516Z,1.38
2022-12-11T08:44:16.313Z,1.37
2022-12-11T08:46:44.651Z,1.29
2022-12-11T08:49:13.888Z,1.23
2022-12-11T08:51:41.469Z,1.21
2022-12-11T08:54:10.829Z,1.12
2022-12-11T08:56:38.407Z,1.04
2022-12-11T08:59:06.187Z,0.88
2022-12-11T09:01:33.768Z,0.89
2022-12-11T09:04:01.619Z,0.95
2022-12-11T09:06:31.470Z,0.95
2022-12-11T09:09:01.817Z,0.96
2022-12-11T09:11:31.600Z,0.90
2022-12-11T09:14:05.152Z,0.98
2022-12-11T09:16:37.532Z,1.02
2022-12-11T09:19:05.150Z,1.12
2022-12-11T09:21:34.313Z,1.21
2022-12-11T09:24:02.521Z,1.22
2022-12-11T09:26:31.624Z,1.27
2022-12-11T09:28:59.977Z,1.43
2022-12-11T09:31:29.598Z,1.56
2022-12-11T09:33:59.626Z,1.82
2022-12-11T09:36:27.828Z,1.83
2022-12-11T09:38:56.899Z,1.96
2022-12-11T09:41:35.942Z,1.92
2022-12-11T09:44:14.906Z,2.09
2022-12-11T09:46:43.905Z,2.34
2022-12-11T09:49:23.598Z,2.66
2022-12-11T09:51:57.332Z,3.04
2022-12-11T09:54:26.668Z,3.41
2022-12-11T09:57:02.413Z,3.75
2022-12-11T09:59:37.983Z,3.89
2022-12-11T10:02:27.005Z,3.91
2022-12-11T10:05:05.247Z,3.55
2022-12-11T10:07:38.982Z,3.59
2022-12-11T10:10:17.684Z,4.55
2022-12-11T10:12:54.432Z,5.26
2022-12-11T10:15:36.793Z,5.69
2022-12-11T10:18:07.042Z,5.95
2022-12-11T10:20:40.326Z,5.98
2022-12-11T10:23:09.436Z,5.70
2022-12-11T10:25:42.071Z,5.31
2022-12-11T10:28:12.373Z,5.00
2022-12-11T10:30:45.204Z,4.90
2022-12-11T10:33:19.335Z,4.96
2022-12-11T10:35:51.138Z,4.84
2022-12-11T10:38:27.394Z,5.08
2022-12-11T10:40:59.457Z,5.28
2022-12-11T10:43:35.097Z,5.28
2022-12-11T10:46:02.870Z,5.39
2022-12-11T10:48:30.504Z,5.26
2022-12-11T10:51:01.793Z,5.42
2022-12-11T10:53:30.101Z,4.98
2022-12-11T10:56:00.127Z,4.89
2022-12-11T10:58:31.812Z,4.38
2022-12-11T11:01:11.862Z,3.79
2022-12-11T11:03:55.108Z,3.54
2022-12-11T11:06:23.913Z,3.29
2022-12-11T11:08:53.310Z,3.19
2022-12-11T11:11:33.898Z,3.19
2022-12-11T11:14:16.343Z,3.68
2022-12-11T11:16:45.812Z,4.62
2022-12-11T11:19:21.258Z,5.03
2022-12-11T11:21:51.976Z,4.97
2022-12-11T11:24:28.001Z,4.41
2022-12-11T11:27:12.676Z,4.28
2022-12-11T11:29:42.456Z,4.07
2022-12-11T11:32:18.802Z,3.70
2022-12-11T11:34:46.406Z,3.23
2022-12-11T11:37:25.095Z,3.10
2022-12-11T11:39:57.461Z,2.54
2022-12-11T11:42:38.046Z,2.43
2022-12-11T11:45:13.522Z,2.35
2022-12-11T11:47:50.629Z,2.03
2022-12-11T11:50:24.043Z,1.77
2022-12-11T11:52:58.788Z,1.74
2022-12-11T11:55:39.451Z,1.70
2022-12-11T11:58:15.137Z,1.52
2022-12-11T12:00:43.533Z,1.64
2022-12-11T12:03:14.500Z,1.70
2022-12-11T12:05:50.836Z,2.27
2022-12-11T12:08:30.458Z,2.04
2022-12-11T12:11:04.508Z,2.05
2022-12-11T12:13:49.637Z,1.88
2022-12-11T12:16:52.365Z,1.91
2022-12-11T12:19:35.410Z,2.05
2022-12-11T12:22:16.290Z,2.27
2022-12-11T12:24:52.640Z,2.33
2022-12-11T12:27:51.008Z,2.30
2022-12-11T12:30:22.507Z,2.21
2022-12-11T12:33:07.270Z,1.89
2022-12-11T12:35:37.103Z,1.85
2022-12-11T12:38:15.857Z,1.79
2022-12-11T12:40:56.592Z,1.93
2022-12-11T12:43:45.485Z,1.91
2022-12-11T12:46:24.521Z,1.99
2022-12-11T12:48:53.517Z,2.01
2022-12-11T12:51:21.997Z,2.25
2022-12-11T12:53:58.291Z,2.39
2022-12-11T12:56:26.943Z,2.40
2022-12-11T12:58:54.479Z,2.41
2022-12-11T13:01:26.429Z,2.27
2022-12-11T13:03:57.423Z,2.26
2022-12-11T13:06:37.752Z,2.22
2022-12-11T13:09:15.801Z,2.22
2022-12-11T13:11:44.058Z,2.27
2022-12-11T13:14:28.442Z,2.29
2022-12-11T13:17:23.346Z,2.30
2022-12-11T13:19:57.436Z,2.19
2022-12-11T13:22:25.962Z,1.88
2022-12-11T13:25:01.680Z,1.87
2022-12-11T13:27:38.541Z,1.82
2022-12-11T13:30:09.059Z,1.87
2022-12-11T13:32:38.046Z,1.92
2022-12-11T13:35:07.544Z,1.89
2022-12-11T13:37:39.526Z,2.03
2022-12-11T13:40:10.721Z,2.01
2022-12-11T13:42:45.294Z,2.08
2022-12-11T13:45:20.317Z,2.17
2022-12-11T13:47:49.549Z,2.19
2022-12-11T13:50:21.744Z,2.54
2022-12-11T13:52:56.394Z,2.55
2022-12-11T13:55:26.486Z,2.50
2022-12-11T13:57:54.018Z,2.62
2022-12-11T14:00:25.165Z,2.62
2022-12-11T14:02:56.607Z,2.64
2022-12-11T14:05:25.013Z,2.61
2022-12-11T14:07:55.682Z,2.43
2022-12-11T14:10:25.730Z,2.39
2022-12-11T14:12:58.097Z,3.13
2022-12-11T14:15:27.074Z,2.83
2022-12-11T14:17:57.527Z,2.73
2022-12-11T14:20:28.101Z,2.75
2022-12-11T14:23:18.018Z,2.53
2022-12-11T14:25:53.441Z,2.40
2022-12-11T14:28:22.536Z,2.20
2022-12-11T14:30:52.720Z,2.16
2022-12-11T14:33:24.037Z,2.24
2022-12-11T14:35:55.721Z,2.14
2022-12-11T14:38:26.995Z,1.88
2022-12-11T14:40:59.432Z,1.68
2022-12-11T14:43:34.114Z,1.49
2022-12-11T14:46:08.728Z,1.28
2022-12-11T14:48:43.456Z,1.22
2022-12-11T14:51:15.568Z,1.13
2022-12-11T14:53:45.992Z,1.06
2022-12-11T14:56:19.379Z,0.94
2022-12-11T14:58:52.597Z,1.00
2022-12-11T15:01:24.572Z,0.99
2022-12-11T15:04:03.921Z,0.93
2022-12-11T15:06:34.322Z,0.90
2022-12-11T15:09:21.001Z,0.93
2022-12-11T15:11:51.446Z,0.93
2022-12-11T15:14:21.574Z,1.01
2022-12-11T15:16:53.961Z,1.04
2022-12-11T15:19:28.140Z,1.08
2022-12-11T15:21:57.523Z,1.04
2022-12-11T15:24:31.298Z,1.01
2022-12-11T15:27:00.965Z,1.37
2022-12-11T15:29:34.911Z,2.14
2022-12-11T15:32:14.888Z,1.75
2022-12-11T15:34:46.684Z,1.51
2022-12-11T15:37:25.638Z,1.38
2022-12-11T15:39:54.806Z,1.23
2022-12-11T15:42:27.806Z,1.20
2022-12-11T15:44:56.295Z,1.13
2022-12-11T15:47:26.354Z,1.13
2022-12-11T15:49:58.912Z,1.08
2022-12-11T15:52:26.615Z,1.01
2022-12-11T15:54:54.176Z,0.92
2022-12-11T15:57:24.731Z,0.87
2022-12-11T15:59:54.926Z,0.90
2022-12-11T16:02:24.217Z,0.82
2022-12-11T16:04:51.994Z,0.67
2022-12-11T16:07:23.070Z,0.63
2022-12-11T16:09:51.392Z,0.61
2022-12-11T16:12:19.437Z,0.55
2022-12-11T16:14:47.596Z,0.47
2022-12-11T16:17:16.804Z,0.38
2022-12-11T16:19:45.120Z,0.36
2022-12-11T16:22:14.047Z,0.35
2022-12-11T16:24:42.974Z,0.40
2022-12-11T16:27:10.630Z,0.44
2022-12-11T16:29:40.711Z,0.46
2022-12-11T16:32:09.391Z,0.49
2022-12-11T16:34:38.133Z,0.52
2022-12-11T16:37:06.494Z,0.40
2022-12-11T16:39:34.129Z,0.29
2022-12-11T16:42:03.057Z,0.28
2022-12-11T16:44:30.626Z,0.30
2022-12-11T16:46:58.823Z,0.37
2022-12-11T16:49:26.377Z,0.31
2022-12-11T16:51:53.927Z,0.43
2022-12-11T16:54:21.479Z,0.48
2022-12-11T16:56:49.083Z,0.52
2022-12-11T16:59:17.993Z,0.51
2022-12-11T17:01:46.540Z,0.41
2022-12-11T17:04:14.099Z,0.35
2022-12-11T17:06:41.696Z,0.34
2022-12-11T17:09:09.226Z,0.36
2022-12-11T17:11:36.792Z,0.41
2022-12-11T17:14:04.448Z,0.44
2022-12-11T17:16:33.994Z,0.56
2022-12-11T17:19:02.939Z,0.47
2022-12-11T17:21:30.495Z,0.41
2022-12-11T17:23:58.035Z,0.33
2022-12-11T17:26:27.959Z,0.34
2022-12-11T17:28:57.170Z,0.30
2022-12-11T17:31:24.974Z,0.33
2022-12-11T17:33:54.704Z,0.31
2022-12-11T17:36:23.319Z,0.25
2022-12-11T17:38:50.883Z,0.16
2022-12-11T17:41:20.758Z,0.22
2022-12-11T17:43:49.105Z,0.19
2022-12-11T17:46:16.896Z,0.15
2022-12-11T17:48:44.892Z,0.16
2022-12-11T17:51:20.942Z,0.20
2022-12-11T17:53:50.598Z,0.23
2022-12-11T17:56:18.468Z,0.28
2022-12-11T17:58:47.316Z,0.29
2022-12-11T18:01:17.959Z,0.31
2022-12-11T18:03:45.752Z,0.29
2022-12-11T18:06:17.647Z,0.27
2022-12-11T18:08:46.149Z,0.29
2022-12-11T18:11:16.559Z,0.22
2022-12-11T18:13:45.007Z,0.15
2022-12-11T18:16:16.741Z,0.14
2022-12-11T18:18:45.731Z,0.07
2022-12-11T18:21:15.932Z,0.02
2022-12-11T18:23:44.233Z,0.00
2022-12-11T18:26:14.308Z,-0.03
2022-12-11T18:28:42.147Z,-0.11
2022-12-11T18:31:10.039Z,-0.17
2022-12-11T18:33:38.962Z,-0.23
2022-12-11T18:36:07.831Z,-0.29
2022-12-11T18:38:36.784Z,-0.27
2022-12-11T18:41:05.235Z,-0.31
2022-12-11T18:43:32.875Z,-0.33
2022-12-11T18:46:06.350Z,-0.36
2022-12-11T18:48:34.024Z,-0.44
2022-12-11T18:51:02.033Z,-0.46
2022-12-11T18:53:29.715Z,-0.57
2022-12-11T18:56:00.607Z,-0.61
2022-12-11T18:58:28.457Z,-0.67
2022-12-11T19:00:56.105Z,-0.71
2022-12-11T19:03:23.785Z,-0.76
2022-12-11T19:05:51.413Z,-0.79
2022-12-11T19:08:19.100Z,-0.84
2022-12-11T19:10:47.961Z,-0.86
2022-12-11T19:13:16.955Z,-0.88
2022-12-11T19:15:45.122Z,-0.91
2022-12-11T19:18:12.708Z,-0.93
2022-12-11T19:20:56.714Z,-0.96
2022-12-11T19:23:31.710Z,-1.03
2022-12-11T19:25:59.256Z,-1.08
2022-12-11T19:28:28.216Z,-1.10
2022-12-11T19:30:55.862Z,-1.11
2022-12-11T19:33:23.565Z,-1.16
2022-12-11T19:36:00.644Z,-1.18
2022-12-11T19:38:31.027Z,-1.23
2022-12-11T19:40:58.645Z,-1.23
2022-12-11T19:43:26.194Z,-1.26
2022-12-11T19:45:55.124Z,-1.27
2022-12-11T19:48:22.653Z,-1.32
2022-12-11T19:50:50.181Z,-1.28
2022-12-11T19:53:17.717Z,-1.23
2022-12-11T19:55:50.537Z,-1.15
2022-12-11T19:58:18.403Z,-1.15
2022-12-11T20:00:46.185Z,-1.08
2022-12-11T20:03:15.161Z,-1.05
2022-12-11T20:05:43.015Z,-1.04
2022-12-11T20:11:04.544Z,-0.98
2022-12-11T20:13:32.535Z,-0.94
2022-12-11T20:16:00.417Z,-0.98
2022-12-11T20:18:29.731Z,-0.98
2022-12-11T20:21:00.752Z,-0.98
2022-12-11T20:23:28.988Z,-0.96
2022-12-11T20:25:59.016Z,-0.96
2022-12-11T20:28:27.443Z,-0.92
2022-12-11T20:30:55.017Z,-0.91
2022-12-11T20:33:22.579Z,-0.84
2022-12-11T20:35:51.666Z,-0.66
2022-12-11T20:38:20.837Z,-0.68
2022-12-11T20:40:48.382Z,-0.69
2022-12-11T20:43:15.888Z,-0.64
2022-12-11T20:45:48.533Z,-0.59
2022-12-11T20:48:16.489Z,-0.64
2022-12-11T20:50:44.125Z,-0.66
2022-12-11T20:53:12.987Z,-0.56
2022-12-11T20:55:41.440Z,-0.47
2022-12-11T20:58:09.811Z,-0.51
2022-12-11T21:00:37.617Z,-0.60
2022-12-11T21:03:06.086Z,-0.61
2022-12-11T21:05:33.650Z,-0.48
2022-12-11T21:08:01.239Z,-0.50
2022-12-11T21:10:30.135Z,-0.51
2022-12-11T21:12:57.663Z,-0.54
2022-12-11T21:15:25.218Z,-0.62
2022-12-11T21:17:52.831Z,-0.67
2022-12-11T21:20:21.134Z,-0.65
2022-12-11T21:22:48.689Z,-0.63
2022-12-11T21:25:16.287Z,-0.59
2022-12-11T21:27:45.158Z,-0.59
2022-12-11T21:30:13.907Z,-0.61
2022-12-11T21:32:42.026Z,-0.61
2022-12-11T21:35:10.936Z,-0.66
2022-12-11T21:37:41.750Z,-0.71
2022-12-11T21:40:10.525Z,-0.68
2022-12-11T21:42:38.051Z,-0.72
2022-12-11T21:45:58.801Z,-0.69
2022-12-11T21:47:55.835Z,-0.65
2022-12-11T21:50:24.013Z,-0.60
2022-12-11T21:52:51.610Z,-0.56
2022-12-11T21:55:19.340Z,-0.60
2022-12-11T21:57:47.050Z,-0.61
2022-12-11T22:00:16.956Z,-0.56
2022-12-11T22:02:44.526Z,-0.52
2022-12-11T22:05:12.414Z,-0.47
2022-12-11T22:07:40.187Z,-0.47
2022-12-11T22:10:08.782Z,-0.47
2022-12-11T22:12:36.343Z,-0.49
2022-12-11T22:15:04.489Z,-0.50
2022-12-11T22:17:33.351Z,-0.45
2022-12-11T22:20:00.911Z,-0.46
2022-12-11T22:22:28.398Z,-0.46
2022-12-11T22:24:55.964Z,-0.49
2022-12-11T22:27:24.145Z,-0.45
2022-12-11T22:29:51.870Z,-0.43
2022-12-11T22:32:19.393Z,-0.41
2022-12-11T22:34:48.232Z,-0.39
2022-12-11T22:37:16.018Z,-0.38
2022-12-11T22:39:43.608Z,-0.36
2022-12-11T22:42:11.186Z,-0.33
2022-12-11T22:44:38.716Z,-0.37
2022-12-11T22:47:06.368Z,-0.35
2022-12-11T22:49:33.970Z,-0.32
2022-12-11T22:52:02.862Z,-0.28
2022-12-11T22:54:30.435Z,-0.30
2022-12-11T22:56:59.031Z,-0.39
2022-12-11T22:59:26.582Z,-0.34
2022-12-11T23:01:54.233Z,-0.38
2022-12-11T23:04:21.830Z,-0.33
2022-12-11T23:06:49.369Z,-0.29
2022-12-11T23:09:18.676Z,-0.29
2022-12-11T23:11:46.383Z,-0.27
2022-12-11T23:14:16.077Z,-0.25
2022-12-11T23:16:44.522Z,-0.27
2022-12-11T23:19:13.237Z,-0.28
2022-12-11T23:21:41.340Z,-0.28
2022-12-11T23:24:09.621Z,-0.26
2022-12-11T23:26:39.283Z,-0.22
2022-12-11T23:29:07.232Z,-0.20
2022-12-11T23:31:35.515Z,-0.23
2022-12-11T23:34:03.114Z,-0.29
2022-12-11T23:36:31.058Z,-0.30
2022-12-11T23:38:58.884Z,-0.32
2022-12-11T23:41:26.740Z,-0.34
2022-12-11T23:43:55.770Z,-0.37
2022-12-11T23:46:25.415Z,-0.43
2022-12-11T23:48:53.690Z,-0.51
2022-12-11T23:51:34.547Z,-0.58
2022-12-11T23:54:02.117Z,-0.57
2022-12-11T23:56:30.640Z,-0.58
2022-12-11T23:59:00.233Z,-0.55
